QXE2002 PANC-PAOM
Flight info
| Callsign | QXE2002 |
|---|---|
| Flight time | 1h 24m |
| Altitude | 38000 |
| Route | TED J111 UNK GOLOS WONAB OME |
| Aircraft | E75L/M-SDE3GILORVW/S |
Departure
| Time | 2026-04-21 17:17 |
|---|---|
| Airport | Ted Stevens Anchorage International Airport (PANC) |
Arrival
| Time | 2026-04-21 18:42 |
|---|---|
| Airport | Nome Airport (PAOM) |
| Time | Latitude | Longitude | Altitude | Speed | Heading |
|---|---|---|---|---|---|
| 2026-04-21 17:04 | 61.17702 | -149.98479 | 159 ft | 0 kts | 162° |
| 2026-04-21 17:06 | 61.17710 | -149.98485 | 158 ft | 2 kts | 150° |
| 2026-04-21 17:06 | 61.17721 | -149.98505 | 159 ft | 2 kts | 130° |
| 2026-04-21 17:06 | 61.17732 | -149.98528 | 159 ft | 2 kts | 135° |
| 2026-04-21 17:06 | 61.17742 | -149.98550 | 159 ft | 2 kts | 134° |
| 2026-04-21 17:07 | 61.17755 | -149.98566 | 159 ft | 2 kts | 176° |
| 2026-04-21 17:07 | 61.17764 | -149.98563 | 159 ft | 0 kts | 202° |
| 2026-04-21 17:07 | 61.17771 | -149.98557 | 159 ft | 0 kts | 205° |
| 2026-04-21 17:10 | 61.17770 | -149.98557 | 159 ft | 0 kts | 207° |
| 2026-04-21 17:10 | 61.17764 | -149.98566 | 159 ft | 2 kts | 211° |
| 2026-04-21 17:10 | 61.17740 | -149.98605 | 159 ft | 6 kts | 232° |
| 2026-04-21 17:10 | 61.17717 | -149.98715 | 159 ft | 10 kts | 250° |
| 2026-04-21 17:11 | 61.17686 | -149.98871 | 159 ft | 12 kts | 246° |
| 2026-04-21 17:11 | 61.17652 | -149.99033 | 159 ft | 12 kts | 219° |
| 2026-04-21 17:11 | 61.17568 | -149.99014 | 159 ft | 13 kts | 159° |
| 2026-04-21 17:11 | 61.17478 | -149.98946 | 159 ft | 14 kts | 161° |
| 2026-04-21 17:12 | 61.17388 | -149.98879 | 159 ft | 13 kts | 157° |
| 2026-04-21 17:12 | 61.17298 | -149.98810 | 159 ft | 14 kts | 161° |
| 2026-04-21 17:12 | 61.17201 | -149.98744 | 159 ft | 14 kts | 163° |
| 2026-04-21 17:12 | 61.17123 | -149.98618 | 159 ft | 15 kts | 103° |
| 2026-04-21 17:13 | 61.17120 | -149.98395 | 159 ft | 15 kts | 95° |
| 2026-04-21 17:13 | 61.17120 | -149.98166 | 159 ft | 16 kts | 91° |
| 2026-04-21 17:13 | 61.17119 | -149.97923 | 158 ft | 16 kts | 91° |
| 2026-04-21 17:13 | 61.17117 | -149.97685 | 158 ft | 17 kts | 90° |
| 2026-04-21 17:14 | 61.17119 | -149.97421 | 158 ft | 18 kts | 88° |
| 2026-04-21 17:14 | 61.17123 | -149.97145 | 158 ft | 19 kts | 88° |
| 2026-04-21 17:14 | 61.17123 | -149.96876 | 158 ft | 11 kts | 103° |
| 2026-04-21 17:14 | 61.17057 | -149.96805 | 158 ft | 12 kts | 180° |
| 2026-04-21 17:15 | 61.16987 | -149.96806 | 158 ft | 10 kts | 181° |
| 2026-04-21 17:15 | 61.16917 | -149.96858 | 158 ft | 11 kts | 233° |
| 2026-04-21 17:15 | 61.16881 | -149.97026 | 158 ft | 13 kts | 246° |
| 2026-04-21 17:15 | 61.16840 | -149.97226 | 158 ft | 16 kts | 248° |
| 2026-04-21 17:16 | 61.16797 | -149.97470 | 158 ft | 19 kts | 257° |
| 2026-04-21 17:16 | 61.16788 | -149.97765 | 158 ft | 21 kts | 270° |
| 2026-04-21 17:16 | 61.16787 | -149.98271 | 159 ft | 63 kts | 269° |
| 2026-04-21 17:16 | 61.16785 | -149.99654 | 159 ft | 125 kts | 269° |
| 2026-04-21 17:17 | 61.16793 | -150.01816 | 222 ft | 165 kts | 269° |
| 2026-04-21 17:17 | 61.16832 | -150.04274 | 656 ft | 179 kts | 267° |
| 2026-04-21 17:17 | 61.16878 | -150.06862 | 1216 ft | 181 kts | 270° |
| 2026-04-21 17:17 | 61.16991 | -150.09701 | 1708 ft | 205 kts | 268° |
| 2026-04-21 17:18 | 61.16885 | -150.12686 | 2506 ft | 212 kts | 261° |
| 2026-04-21 17:18 | 61.16789 | -150.15710 | 3444 ft | 214 kts | 263° |
| 2026-04-21 17:18 | 61.16729 | -150.18816 | 4179 ft | 225 kts | 265° |
| 2026-04-21 17:18 | 61.16690 | -150.22221 | 4685 ft | 248 kts | 266° |
| 2026-04-21 17:19 | 61.16667 | -150.25864 | 5430 ft | 259 kts | 267° |
| 2026-04-21 17:19 | 61.16651 | -150.29572 | 6367 ft | 261 kts | 268° |
| 2026-04-21 17:19 | 61.16639 | -150.33281 | 7389 ft | 260 kts | 269° |
| 2026-04-21 17:19 | 61.16628 | -150.36952 | 8405 ft | 258 kts | 269° |
| 2026-04-21 17:20 | 61.16616 | -150.40662 | 9306 ft | 259 kts | 270° |
| 2026-04-21 17:20 | 61.16604 | -150.44380 | 10219 ft | 260 kts | 270° |
| 2026-04-21 17:20 | 61.16820 | -150.48071 | 10956 ft | 266 kts | 292° |
| 2026-04-21 17:20 | 61.18012 | -150.51035 | 11624 ft | 280 kts | 324° |
| 2026-04-21 17:21 | 61.19783 | -150.52774 | 12261 ft | 291 kts | 332° |
| 2026-04-21 17:21 | 61.21646 | -150.54421 | 12938 ft | 287 kts | 332° |
| 2026-04-21 17:21 | 61.23470 | -150.56033 | 13587 ft | 287 kts | 331° |
| 2026-04-21 17:21 | 61.25313 | -150.57669 | 14263 ft | 291 kts | 331° |
| 2026-04-21 17:22 | 61.27178 | -150.59326 | 14943 ft | 295 kts | 331° |
| 2026-04-21 17:22 | 61.29066 | -150.61008 | 15629 ft | 298 kts | 330° |
| 2026-04-21 17:22 | 61.30976 | -150.62712 | 16325 ft | 300 kts | 330° |
| 2026-04-21 17:22 | 61.32875 | -150.64410 | 17013 ft | 302 kts | 330° |
| 2026-04-21 17:23 | 61.34815 | -150.66148 | 17682 ft | 305 kts | 329° |
| 2026-04-21 17:23 | 61.36682 | -150.68173 | 18367 ft | 296 kts | 313° |
| 2026-04-21 17:23 | 61.37854 | -150.71580 | 19007 ft | 290 kts | 294° |
| 2026-04-21 17:23 | 61.38843 | -150.75264 | 19682 ft | 292 kts | 298° |
| 2026-04-21 17:24 | 61.39968 | -150.78766 | 20374 ft | 294 kts | 301° |
| 2026-04-21 17:24 | 61.41159 | -150.82184 | 21027 ft | 295 kts | 302° |
| 2026-04-21 17:24 | 61.42404 | -150.85634 | 21645 ft | 298 kts | 303° |
| 2026-04-21 17:24 | 61.43658 | -150.89053 | 22298 ft | 297 kts | 303° |
| 2026-04-21 17:25 | 61.44919 | -150.92471 | 22943 ft | 298 kts | 304° |
| 2026-04-21 17:25 | 61.46188 | -150.95905 | 23581 ft | 297 kts | 303° |
| 2026-04-21 17:25 | 61.47450 | -150.99324 | 24114 ft | 299 kts | 303° |
| 2026-04-21 17:25 | 61.48754 | -151.02858 | 24747 ft | 299 kts | 303° |
| 2026-04-21 17:26 | 61.50029 | -151.06316 | 25236 ft | 302 kts | 303° |
| 2026-04-21 17:26 | 61.51325 | -151.09837 | 25703 ft | 305 kts | 303° |
| 2026-04-21 17:26 | 61.52657 | -151.13461 | 26171 ft | 308 kts | 303° |
| 2026-04-21 17:26 | 61.53987 | -151.17084 | 26652 ft | 310 kts | 303° |
| 2026-04-21 17:27 | 61.55307 | -151.20688 | 27121 ft | 313 kts | 302° |
| 2026-04-21 17:27 | 61.56619 | -151.24275 | 27571 ft | 315 kts | 303° |
| 2026-04-21 17:27 | 61.57959 | -151.27943 | 28074 ft | 316 kts | 302° |
| 2026-04-21 17:27 | 61.59296 | -151.31607 | 28537 ft | 317 kts | 303° |
| 2026-04-21 17:28 | 61.60635 | -151.35288 | 29003 ft | 318 kts | 302° |
| 2026-04-21 17:28 | 61.61981 | -151.38992 | 29440 ft | 320 kts | 303° |
| 2026-04-21 17:28 | 61.63341 | -151.42740 | 29871 ft | 322 kts | 303° |
| 2026-04-21 17:28 | 61.64692 | -151.46466 | 30286 ft | 323 kts | 303° |
| 2026-04-21 17:29 | 61.66060 | -151.50246 | 30648 ft | 326 kts | 303° |
| 2026-04-21 17:29 | 61.67437 | -151.54062 | 31013 ft | 328 kts | 302° |
| 2026-04-21 17:29 | 61.68815 | -151.57884 | 31315 ft | 331 kts | 303° |
| 2026-04-21 17:29 | 61.70222 | -151.61793 | 31538 ft | 334 kts | 303° |
| 2026-04-21 17:30 | 61.71631 | -151.65715 | 31763 ft | 337 kts | 302° |
| 2026-04-21 17:30 | 61.73058 | -151.69693 | 31993 ft | 340 kts | 302° |
| 2026-04-21 17:30 | 61.74483 | -151.73673 | 32204 ft | 343 kts | 302° |
| 2026-04-21 17:30 | 61.75910 | -151.77667 | 32421 ft | 345 kts | 303° |
| 2026-04-21 17:31 | 61.77371 | -151.81760 | 32622 ft | 347 kts | 303° |
| 2026-04-21 17:31 | 61.78816 | -151.85814 | 32812 ft | 350 kts | 303° |
| 2026-04-21 17:31 | 61.80287 | -151.89954 | 33000 ft | 352 kts | 302° |
| 2026-04-21 17:31 | 61.81768 | -151.94128 | 33150 ft | 355 kts | 303° |
| 2026-04-21 17:32 | 61.83235 | -151.98267 | 33323 ft | 357 kts | 302° |
| 2026-04-21 17:32 | 61.84735 | -152.02508 | 33459 ft | 360 kts | 303° |
| 2026-04-21 17:32 | 61.86244 | -152.06784 | 33594 ft | 362 kts | 303° |
| 2026-04-21 17:32 | 61.87739 | -152.11028 | 33752 ft | 365 kts | 303° |
| 2026-04-21 17:33 | 61.89265 | -152.15366 | 33870 ft | 367 kts | 303° |
| 2026-04-21 17:33 | 61.90785 | -152.19698 | 34001 ft | 368 kts | 303° |
| 2026-04-21 17:33 | 61.92317 | -152.24071 | 34174 ft | 370 kts | 303° |
| 2026-04-21 17:33 | 61.93865 | -152.28497 | 34299 ft | 373 kts | 303° |
| 2026-04-21 17:34 | 61.95408 | -152.32919 | 34453 ft | 374 kts | 303° |
| 2026-04-21 17:34 | 61.96959 | -152.37373 | 34658 ft | 375 kts | 303° |
| 2026-04-21 17:34 | 61.98492 | -152.41783 | 34869 ft | 375 kts | 303° |
| 2026-04-21 17:34 | 62.00055 | -152.46289 | 35028 ft | 376 kts | 303° |
| 2026-04-21 17:35 | 62.01598 | -152.50743 | 35176 ft | 377 kts | 303° |
| 2026-04-21 17:35 | 62.03160 | -152.55263 | 35298 ft | 379 kts | 303° |
| 2026-04-21 17:35 | 62.04709 | -152.59753 | 35430 ft | 381 kts | 303° |
| 2026-04-21 17:35 | 62.06283 | -152.64325 | 35584 ft | 381 kts | 303° |
| 2026-04-21 17:36 | 62.07859 | -152.68912 | 35717 ft | 382 kts | 302° |
| 2026-04-21 17:36 | 62.09414 | -152.73450 | 35867 ft | 383 kts | 303° |
| 2026-04-21 17:36 | 62.11008 | -152.78110 | 36027 ft | 384 kts | 302° |
| 2026-04-21 17:36 | 62.12583 | -152.82719 | 36188 ft | 384 kts | 303° |
| 2026-04-21 17:37 | 62.14167 | -152.87370 | 36330 ft | 385 kts | 303° |
| 2026-04-21 17:37 | 62.15683 | -152.92009 | 36469 ft | 385 kts | 301° |
| 2026-04-21 17:37 | 62.17167 | -152.96786 | 36585 ft | 386 kts | 301° |
| 2026-04-21 17:37 | 62.18659 | -153.01581 | 36676 ft | 387 kts | 301° |
| 2026-04-21 17:38 | 62.20151 | -153.06372 | 36794 ft | 388 kts | 301° |
| 2026-04-21 17:38 | 62.21652 | -153.11204 | 36863 ft | 390 kts | 301° |
| 2026-04-21 17:38 | 62.24651 | -153.20891 | 37030 ft | 392 kts | 301° |
| 2026-04-21 17:39 | 62.26170 | -153.25809 | 37150 ft | 392 kts | 301° |
| 2026-04-21 17:39 | 62.27671 | -153.30685 | 37246 ft | 393 kts | 301° |
| 2026-04-21 17:39 | 62.30675 | -153.40466 | 37398 ft | 395 kts | 302° |
| 2026-04-21 17:40 | 62.33709 | -153.50392 | 37518 ft | 397 kts | 302° |
| 2026-04-21 17:40 | 62.36750 | -153.60382 | 37692 ft | 397 kts | 302° |
| 2026-04-21 17:41 | 62.39784 | -153.70393 | 37816 ft | 399 kts | 301° |
| 2026-04-21 17:41 | 62.42812 | -153.80428 | 37904 ft | 401 kts | 301° |
| 2026-04-21 17:42 | 62.45866 | -153.90593 | 37946 ft | 404 kts | 301° |
| 2026-04-21 17:42 | 62.48931 | -154.00842 | 37986 ft | 408 kts | 301° |
| 2026-04-21 17:43 | 62.52016 | -154.11209 | 37991 ft | 411 kts | 301° |
| 2026-04-21 17:43 | 62.55100 | -154.21613 | 38020 ft | 415 kts | 301° |
| 2026-04-21 17:44 | 62.58237 | -154.32250 | 38034 ft | 418 kts | 301° |
| 2026-04-21 17:44 | 62.61393 | -154.42998 | 38044 ft | 421 kts | 301° |
| 2026-04-21 17:45 | 62.64563 | -154.53847 | 38057 ft | 423 kts | 301° |
| 2026-04-21 17:45 | 62.67725 | -154.64723 | 38065 ft | 426 kts | 301° |
| 2026-04-21 17:46 | 62.70890 | -154.75658 | 38069 ft | 428 kts | 300° |
| 2026-04-21 17:46 | 62.74080 | -154.86737 | 38082 ft | 430 kts | 300° |
| 2026-04-21 17:47 | 62.77240 | -154.97761 | 38092 ft | 427 kts | 300° |
| 2026-04-21 17:47 | 62.80365 | -155.08720 | 38106 ft | 427 kts | 300° |
| 2026-04-21 17:48 | 62.83505 | -155.19783 | 38111 ft | 427 kts | 300° |
| 2026-04-21 17:48 | 62.86641 | -155.30885 | 38123 ft | 427 kts | 300° |
| 2026-04-21 17:49 | 62.89771 | -155.42024 | 38108 ft | 429 kts | 300° |
| 2026-04-21 17:49 | 62.92913 | -155.53261 | 38114 ft | 430 kts | 300° |
| 2026-04-21 17:50 | 62.95847 | -155.64624 | 38118 ft | 427 kts | 294° |
| 2026-04-21 17:50 | 62.98331 | -155.76558 | 38109 ft | 425 kts | 293° |
| 2026-04-21 17:51 | 63.00808 | -155.88490 | 38125 ft | 426 kts | 293° |
| 2026-04-21 17:51 | 63.03272 | -156.00418 | 38112 ft | 426 kts | 293° |
| 2026-04-21 17:52 | 63.05725 | -156.12367 | 38100 ft | 424 kts | 293° |
| 2026-04-21 17:52 | 63.08154 | -156.24268 | 38068 ft | 425 kts | 293° |
| 2026-04-21 17:53 | 63.10561 | -156.36130 | 38054 ft | 422 kts | 293° |
| 2026-04-21 17:53 | 63.12978 | -156.48103 | 38063 ft | 424 kts | 293° |
| 2026-04-21 17:54 | 63.15379 | -156.60071 | 38076 ft | 423 kts | 293° |
| 2026-04-21 17:54 | 63.17770 | -156.72064 | 38104 ft | 424 kts | 292° |
| 2026-04-21 17:55 | 63.20135 | -156.83989 | 38110 ft | 424 kts | 292° |
| 2026-04-21 17:55 | 63.22498 | -156.95979 | 38110 ft | 422 kts | 292° |
| 2026-04-21 17:56 | 63.24834 | -157.07899 | 38131 ft | 421 kts | 292° |
| 2026-04-21 17:56 | 63.27161 | -157.19846 | 38164 ft | 422 kts | 292° |
| 2026-04-21 17:57 | 63.29483 | -157.31842 | 38167 ft | 422 kts | 292° |
| 2026-04-21 17:57 | 63.31794 | -157.43843 | 38167 ft | 423 kts | 292° |
| 2026-04-21 17:58 | 63.34099 | -157.55891 | 38175 ft | 423 kts | 292° |
| 2026-04-21 17:58 | 63.36400 | -157.67990 | 38186 ft | 423 kts | 291° |
| 2026-04-21 17:59 | 63.38688 | -157.80089 | 38193 ft | 424 kts | 291° |
| 2026-04-21 17:59 | 63.40968 | -157.92229 | 38195 ft | 425 kts | 291° |
| 2026-04-21 18:00 | 63.43234 | -158.04361 | 38189 ft | 426 kts | 291° |
| 2026-04-21 18:00 | 63.45511 | -158.16629 | 38173 ft | 427 kts | 291° |
| 2026-04-21 18:01 | 63.47772 | -158.28886 | 38137 ft | 426 kts | 291° |
| 2026-04-21 18:01 | 63.50012 | -158.41109 | 38161 ft | 426 kts | 291° |
| 2026-04-21 18:02 | 63.52255 | -158.53420 | 38178 ft | 429 kts | 291° |
| 2026-04-21 18:02 | 63.54508 | -158.65865 | 38178 ft | 430 kts | 290° |
| 2026-04-21 18:03 | 63.56748 | -158.78317 | 38186 ft | 429 kts | 290° |
| 2026-04-21 18:03 | 63.58970 | -158.90753 | 38185 ft | 430 kts | 290° |
| 2026-04-21 18:04 | 63.61185 | -159.03227 | 38182 ft | 430 kts | 290° |
| 2026-04-21 18:04 | 63.63392 | -159.15733 | 38186 ft | 431 kts | 290° |
| 2026-04-21 18:05 | 63.65604 | -159.28351 | 38197 ft | 432 kts | 290° |
| 2026-04-21 18:05 | 63.67789 | -159.40897 | 38202 ft | 430 kts | 290° |
| 2026-04-21 18:06 | 63.69961 | -159.53453 | 38191 ft | 431 kts | 290° |
| 2026-04-21 18:06 | 63.72136 | -159.66110 | 38157 ft | 431 kts | 289° |
| 2026-04-21 18:07 | 63.74288 | -159.78716 | 38108 ft | 430 kts | 289° |
| 2026-04-21 18:07 | 63.76438 | -159.91389 | 38092 ft | 431 kts | 289° |
| 2026-04-21 18:08 | 63.78579 | -160.04100 | 38094 ft | 429 kts | 289° |
| 2026-04-21 18:08 | 63.80681 | -160.16660 | 38110 ft | 430 kts | 289° |
| 2026-04-21 18:09 | 63.82792 | -160.29364 | 38122 ft | 430 kts | 289° |
| 2026-04-21 18:09 | 63.84889 | -160.42062 | 38141 ft | 431 kts | 289° |
| 2026-04-21 18:10 | 63.86969 | -160.54747 | 38138 ft | 427 kts | 289° |
| 2026-04-21 18:10 | 63.89025 | -160.67398 | 38168 ft | 423 kts | 288° |
| 2026-04-21 18:11 | 63.90933 | -160.80147 | 37987 ft | 427 kts | 287° |
| 2026-04-21 18:11 | 63.91867 | -160.86500 | 37566 ft | 426 kts | 287° |
| 2026-04-21 18:11 | 63.92792 | -160.92802 | 37120 ft | 422 kts | 287° |
| 2026-04-21 18:12 | 63.93711 | -160.99086 | 36667 ft | 416 kts | 287° |
| 2026-04-21 18:12 | 63.94618 | -161.05315 | 36223 ft | 412 kts | 287° |
| 2026-04-21 18:12 | 63.95502 | -161.11408 | 35776 ft | 408 kts | 287° |
| 2026-04-21 18:12 | 63.96389 | -161.17535 | 35305 ft | 406 kts | 287° |
| 2026-04-21 18:13 | 63.97263 | -161.23596 | 34876 ft | 405 kts | 287° |
| 2026-04-21 18:13 | 63.98136 | -161.29678 | 34434 ft | 405 kts | 287° |
| 2026-04-21 18:13 | 63.99011 | -161.35790 | 33966 ft | 403 kts | 287° |
| 2026-04-21 18:13 | 63.99877 | -161.41856 | 33522 ft | 401 kts | 287° |
| 2026-04-21 18:14 | 64.01582 | -161.53876 | 32701 ft | 396 kts | 286° |
| 2026-04-21 18:14 | 64.02421 | -161.59813 | 32271 ft | 390 kts | 286° |
| 2026-04-21 18:14 | 64.03241 | -161.65640 | 31868 ft | 382 kts | 285° |
| 2026-04-21 18:15 | 64.04036 | -161.71315 | 31430 ft | 372 kts | 285° |
| 2026-04-21 18:15 | 64.04806 | -161.76825 | 31033 ft | 362 kts | 284° |
| 2026-04-21 18:15 | 64.05556 | -161.82208 | 30596 ft | 354 kts | 284° |
| 2026-04-21 18:15 | 64.06296 | -161.87543 | 30185 ft | 348 kts | 284° |
| 2026-04-21 18:16 | 64.07014 | -161.92735 | 29776 ft | 347 kts | 284° |
| 2026-04-21 18:16 | 64.07741 | -161.98007 | 29418 ft | 346 kts | 284° |
| 2026-04-21 18:16 | 64.08457 | -162.03212 | 29015 ft | 343 kts | 284° |
| 2026-04-21 18:16 | 64.09158 | -162.08322 | 28625 ft | 340 kts | 284° |
| 2026-04-21 18:17 | 64.09865 | -162.13500 | 28238 ft | 338 kts | 284° |
| 2026-04-21 18:17 | 64.10564 | -162.18623 | 27861 ft | 335 kts | 284° |
| 2026-04-21 18:17 | 64.11253 | -162.23703 | 27495 ft | 334 kts | 284° |
| 2026-04-21 18:17 | 64.11938 | -162.28763 | 27115 ft | 331 kts | 284° |
| 2026-04-21 18:18 | 64.12614 | -162.33766 | 26758 ft | 327 kts | 284° |
| 2026-04-21 18:18 | 64.13283 | -162.38737 | 26400 ft | 325 kts | 284° |
| 2026-04-21 18:18 | 64.13941 | -162.43642 | 26058 ft | 325 kts | 284° |
| 2026-04-21 18:18 | 64.14604 | -162.48598 | 25702 ft | 321 kts | 284° |
| 2026-04-21 18:19 | 64.15254 | -162.53470 | 25356 ft | 319 kts | 284° |
| 2026-04-21 18:19 | 64.15897 | -162.58302 | 25006 ft | 318 kts | 285° |
| 2026-04-21 18:19 | 64.16540 | -162.63150 | 24640 ft | 317 kts | 284° |
| 2026-04-21 18:19 | 64.17177 | -162.67972 | 24296 ft | 315 kts | 284° |
| 2026-04-21 18:20 | 64.17807 | -162.72748 | 23972 ft | 313 kts | 284° |
| 2026-04-21 18:20 | 64.18443 | -162.77585 | 23612 ft | 314 kts | 284° |
| 2026-04-21 18:20 | 64.19070 | -162.82367 | 23273 ft | 313 kts | 284° |
| 2026-04-21 18:20 | 64.19694 | -162.87151 | 22906 ft | 312 kts | 284° |
| 2026-04-21 18:21 | 64.20315 | -162.91917 | 22583 ft | 311 kts | 284° |
| 2026-04-21 18:21 | 64.20932 | -162.96664 | 22210 ft | 309 kts | 284° |
| 2026-04-21 18:21 | 64.21544 | -163.01388 | 21883 ft | 309 kts | 284° |
| 2026-04-21 18:21 | 64.22154 | -163.06114 | 21531 ft | 309 kts | 284° |
| 2026-04-21 18:22 | 64.22759 | -163.10815 | 21190 ft | 309 kts | 284° |
| 2026-04-21 18:22 | 64.23361 | -163.15503 | 20870 ft | 307 kts | 285° |
| 2026-04-21 18:22 | 64.23960 | -163.20184 | 20516 ft | 307 kts | 285° |
| 2026-04-21 18:22 | 64.24554 | -163.24843 | 20173 ft | 305 kts | 285° |
| 2026-04-21 18:23 | 64.25155 | -163.29559 | 19814 ft | 305 kts | 285° |
| 2026-04-21 18:23 | 64.25744 | -163.34201 | 19482 ft | 303 kts | 285° |
| 2026-04-21 18:23 | 64.26324 | -163.38788 | 19167 ft | 302 kts | 285° |
| 2026-04-21 18:23 | 64.26917 | -163.43488 | 18836 ft | 304 kts | 285° |
| 2026-04-21 18:24 | 64.27500 | -163.48126 | 18488 ft | 302 kts | 285° |
| 2026-04-21 18:24 | 64.27799 | -163.52808 | 18954 ft | 299 kts | 272° |
| 2026-04-21 18:24 | 64.28194 | -163.57516 | 19649 ft | 303 kts | 289° |
| 2026-04-21 18:24 | 64.29005 | -163.62096 | 18925 ft | 319 kts | 290° |
| 2026-04-21 18:25 | 64.29744 | -163.66911 | 17857 ft | 316 kts | 287° |
| 2026-04-21 18:25 | 64.30391 | -163.71664 | 16897 ft | 310 kts | 286° |
| 2026-04-21 18:25 | 64.30987 | -163.76292 | 16485 ft | 294 kts | 285° |
| 2026-04-21 18:25 | 64.31556 | -163.80826 | 16166 ft | 295 kts | 285° |
| 2026-04-21 18:26 | 64.32121 | -163.85391 | 15821 ft | 298 kts | 285° |
| 2026-04-21 18:26 | 64.32687 | -163.89990 | 15498 ft | 298 kts | 285° |
| 2026-04-21 18:26 | 64.33255 | -163.94641 | 14940 ft | 299 kts | 285° |
| 2026-04-21 18:26 | 64.33811 | -163.99211 | 14577 ft | 295 kts | 285° |
| 2026-04-21 18:27 | 64.34358 | -164.03717 | 14271 ft | 294 kts | 285° |
| 2026-04-21 18:27 | 64.34914 | -164.08316 | 13917 ft | 294 kts | 286° |
| 2026-04-21 18:27 | 64.35462 | -164.12856 | 13608 ft | 294 kts | 286° |
| 2026-04-21 18:27 | 64.36011 | -164.17418 | 13268 ft | 294 kts | 286° |
| 2026-04-21 18:28 | 64.36552 | -164.21935 | 12943 ft | 293 kts | 286° |
| 2026-04-21 18:28 | 64.37090 | -164.26425 | 12621 ft | 292 kts | 286° |
| 2026-04-21 18:28 | 64.37627 | -164.30939 | 12306 ft | 292 kts | 286° |
| 2026-04-21 18:28 | 64.38163 | -164.35445 | 11984 ft | 291 kts | 286° |
| 2026-04-21 18:29 | 64.38692 | -164.39911 | 11659 ft | 288 kts | 286° |
| 2026-04-21 18:29 | 64.39216 | -164.44345 | 11334 ft | 282 kts | 286° |
| 2026-04-21 18:29 | 64.39722 | -164.48647 | 11027 ft | 277 kts | 286° |
| 2026-04-21 18:29 | 64.40222 | -164.52905 | 10731 ft | 270 kts | 287° |
| 2026-04-21 18:30 | 64.40706 | -164.57033 | 10433 ft | 264 kts | 287° |
| 2026-04-21 18:30 | 64.41178 | -164.61076 | 10137 ft | 259 kts | 287° |
| 2026-04-21 18:30 | 64.41647 | -164.65100 | 9863 ft | 254 kts | 286° |
| 2026-04-21 18:30 | 64.42106 | -164.69052 | 9586 ft | 252 kts | 287° |
| 2026-04-21 18:31 | 64.42557 | -164.72943 | 9312 ft | 251 kts | 287° |
| 2026-04-21 18:31 | 64.43006 | -164.76827 | 9031 ft | 251 kts | 287° |
| 2026-04-21 18:31 | 64.43457 | -164.80734 | 8754 ft | 251 kts | 287° |
| 2026-04-21 18:31 | 64.43905 | -164.84631 | 8488 ft | 250 kts | 287° |
| 2026-04-21 18:32 | 64.44352 | -164.88531 | 8201 ft | 250 kts | 287° |
| 2026-04-21 18:32 | 64.44788 | -164.92349 | 7941 ft | 244 kts | 287° |
| 2026-04-21 18:32 | 64.45226 | -164.96207 | 7525 ft | 248 kts | 287° |
| 2026-04-21 18:32 | 64.45651 | -165.00012 | 7021 ft | 247 kts | 287° |
| 2026-04-21 18:33 | 64.46070 | -165.03828 | 6527 ft | 244 kts | 287° |
| 2026-04-21 18:33 | 64.46478 | -165.07581 | 6012 ft | 239 kts | 287° |
| 2026-04-21 18:33 | 64.46794 | -165.11325 | 5493 ft | 237 kts | 276° |
| 2026-04-21 18:33 | 64.46828 | -165.15105 | 4995 ft | 234 kts | 274° |
| 2026-04-21 18:34 | 64.46845 | -165.18819 | 4509 ft | 230 kts | 278° |
| 2026-04-21 18:34 | 64.47317 | -165.22215 | 4046 ft | 220 kts | 299° |
| 2026-04-21 18:34 | 64.48036 | -165.25302 | 3573 ft | 218 kts | 297° |
| 2026-04-21 18:34 | 64.48595 | -165.28604 | 3103 ft | 216 kts | 293° |
| 2026-04-21 18:35 | 64.48932 | -165.30742 | 2873 ft | 211 kts | 293° |
| 2026-04-21 18:35 | 64.48983 | -165.35016 | 3025 ft | 210 kts | 257° |
| 2026-04-21 18:35 | 64.48225 | -165.37987 | 3030 ft | 225 kts | 219° |
| 2026-04-21 18:35 | 64.46770 | -165.39327 | 3044 ft | 231 kts | 192° |
| 2026-04-21 18:36 | 64.45195 | -165.39595 | 2896 ft | 224 kts | 165° |
| 2026-04-21 18:36 | 64.43893 | -165.37526 | 2835 ft | 244 kts | 121° |
| 2026-04-21 18:36 | 64.43193 | -165.34006 | 2917 ft | 231 kts | 108° |
| 2026-04-21 18:36 | 64.42648 | -165.30687 | 2875 ft | 211 kts | 108° |
| 2026-04-21 18:37 | 64.42146 | -165.27664 | 2832 ft | 195 kts | 108° |
| 2026-04-21 18:37 | 64.41730 | -165.24742 | 2514 ft | 190 kts | 90° |
| 2026-04-21 18:37 | 64.42100 | -165.22051 | 2334 ft | 170 kts | 45° |
| 2026-04-21 18:37 | 64.43076 | -165.20746 | 2100 ft | 161 kts | 18° |
| 2026-04-21 18:38 | 64.44147 | -165.19949 | 2026 ft | 157 kts | 17° |
| 2026-04-21 18:38 | 64.45171 | -165.19638 | 2011 ft | 149 kts | 348° |
| 2026-04-21 18:38 | 64.46072 | -165.20793 | 2016 ft | 149 kts | 327° |
| 2026-04-21 18:38 | 64.46944 | -165.22075 | 2002 ft | 148 kts | 334° |
| 2026-04-21 18:39 | 64.47774 | -165.23434 | 1973 ft | 150 kts | 308° |
| 2026-04-21 18:39 | 64.48171 | -165.25713 | 1833 ft | 154 kts | 291° |
| 2026-04-21 18:39 | 64.48505 | -165.27989 | 1593 ft | 142 kts | 292° |
| 2026-04-21 18:39 | 64.48821 | -165.30037 | 1369 ft | 128 kts | 292° |
| 2026-04-21 18:40 | 64.49115 | -165.31918 | 1183 ft | 122 kts | 292° |
| 2026-04-21 18:40 | 64.49404 | -165.33769 | 1021 ft | 122 kts | 292° |
| 2026-04-21 18:40 | 64.49601 | -165.35030 | 905 ft | 124 kts | 292° |
| 2026-04-21 18:40 | 64.49996 | -165.37552 | 661 ft | 127 kts | 292° |
| 2026-04-21 18:41 | 64.50301 | -165.39494 | 472 ft | 127 kts | 291° |
| 2026-04-21 18:41 | 64.50595 | -165.41412 | 278 ft | 126 kts | 290° |
| 2026-04-21 18:41 | 64.50890 | -165.43312 | 69 ft | 124 kts | 290° |
| 2026-04-21 18:41 | 64.51154 | -165.44975 | 36 ft | 82 kts | 290° |
| 2026-04-21 18:42 | 64.51284 | -165.45819 | 33 ft | 25 kts | 291° |
| 2026-04-21 18:42 | 64.51288 | -165.45914 | 33 ft | 4 kts | 140° |
| 2026-04-21 18:42 | 64.51273 | -165.45818 | 33 ft | 8 kts | 106° |
| 2026-04-21 18:42 | 64.51248 | -165.45630 | 34 ft | 16 kts | 108° |
| 2026-04-21 18:43 | 64.51198 | -165.45309 | 35 ft | 26 kts | 111° |
| 2026-04-21 18:43 | 64.51121 | -165.44832 | 36 ft | 36 kts | 110° |
| 2026-04-21 18:43 | 64.51035 | -165.44266 | 35 ft | 28 kts | 110° |
| 2026-04-21 18:43 | 64.50980 | -165.44034 | 36 ft | 11 kts | 155° |
| 2026-04-21 18:44 | 64.50899 | -165.44051 | 37 ft | 11 kts | 198° |
| 2026-04-21 18:44 | 64.50863 | -165.44072 | 37 ft | 5 kts | 178° |
| 2026-04-21 18:44 | 64.50828 | -165.44034 | 37 ft | 6 kts | 165° |
| 2026-04-21 18:44 | 64.50799 | -165.44040 | 38 ft | 1 kts | 207° |
| 2026-04-21 18:45 | 64.50787 | -165.44070 | 37 ft | 3 kts | 251° |
| 2026-04-21 18:45 | 64.50793 | -165.44144 | 37 ft | 5 kts | 290° |
| 2026-04-21 18:45 | 64.50796 | -165.44165 | 37 ft | 0 kts | 289° |
| 2026-04-21 18:45 | 64.50796 | -165.44170 | 37 ft | 0 kts | 290° |